sensor_id;sensor_type;location;lat;lon;timestamp;pressure;altitude;pressure_sealevel;temperature;humidity
79048;BME280;68680;50.764;6.120;2024-03-23T00:55:56;96273.72;;;-11.01;nan
79048;BME280;68680;50.764;6.120;2024-03-23T00:58:22;96270.19;;;-11.08;nan
79048;BME280;68680;50.764;6.120;2024-03-23T01:00:47;96268.56;;;-11.01;nan
79048;BME280;68680;50.764;6.120;2024-03-23T01:03:13;96268.66;;;-11.26;nan
79048;BME280;68680;50.764;6.120;2024-03-23T01:05:39;96260.00;;;-11.33;nan
79048;BME280;68680;50.764;6.120;2024-03-23T01:08:06;96264.22;;;-11.40;nan
79048;BME280;68680;50.764;6.120;2024-03-23T01:10:33;96263.00;;;-11.60;nan
79048;BME280;68680;50.764;6.120;2024-03-23T01:12:59;96270.00;;;-11.38;nan
79048;BME280;68680;50.764;6.120;2024-03-23T01:15:24;96255.16;;;-11.28;nan
79048;BME280;68680;50.764;6.120;2024-03-23T01:17:50;96251.28;;;-11.24;nan
79048;BME280;68680;50.764;6.120;2024-03-23T01:20:16;96261.25;;;-11.20;nan
79048;BME280;68680;50.764;6.120;2024-03-23T01:22:42;96272.59;;;-11.46;nan
79048;BME280;68680;50.764;6.120;2024-03-23T01:25:08;96261.56;;;-11.63;nan
79048;BME280;68680;50.764;6.120;2024-03-23T01:27:35;96245.63;;;-11.50;nan
79048;BME280;68680;50.764;6.120;2024-03-23T01:30:01;96247.22;;;-11.49;nan
79048;BME280;68680;50.764;6.120;2024-03-23T01:32:26;96255.22;;;-11.44;nan
79048;BME280;68680;50.764;6.120;2024-03-23T01:34:52;96268.22;;;-11.84;nan
79048;BME280;68680;50.764;6.120;2024-03-23T01:37:18;96270.31;;;-11.96;nan
79048;BME280;68680;50.764;6.120;2024-03-23T01:39:44;96272.59;;;-12.41;nan
79048;BME280;68680;50.764;6.120;2024-03-23T01:42:09;96282.34;;;-12.45;nan
79048;BME280;68680;50.764;6.120;2024-03-23T01:44:37;96277.06;;;-12.43;nan
79048;BME280;68680;50.764;6.120;2024-03-23T01:47:03;96268.88;;;-12.39;nan
79048;BME280;68680;50.764;6.120;2024-03-23T01:49:29;96268.72;;;-12.62;nan
79048;BME280;68680;50.764;6.120;2024-03-23T01:51:54;96259.25;;;-12.77;nan
79048;BME280;68680;50.764;6.120;2024-03-23T01:54:21;96261.97;;;-12.63;nan
79048;BME280;68680;50.764;6.120;2024-03-23T01:56:49;96266.00;;;-12.60;nan
79048;BME280;68680;50.764;6.120;2024-03-23T01:59:14;96254.78;;;-12.75;nan
79048;BME280;68680;50.764;6.120;2024-03-23T02:01:42;96253.19;;;-12.52;nan
79048;BME280;68680;50.764;6.120;2024-03-23T02:04:07;96258.59;;;-12.71;nan
79048;BME280;68680;50.764;6.120;2024-03-23T02:06:33;96258.59;;;-12.63;nan
79048;BME280;68680;50.764;6.120;2024-03-23T02:09:00;96273.03;;;-12.78;nan
79048;BME280;68680;50.764;6.120;2024-03-23T02:11:26;96272.06;;;-12.69;nan
79048;BME280;68680;50.764;6.120;2024-03-23T02:13:52;96283.44;;;-12.88;nan
79048;BME280;68680;50.764;6.120;2024-03-23T02:16:17;96271.06;;;-12.93;nan
79048;BME280;68680;50.764;6.120;2024-03-23T02:18:44;96275.25;;;-12.83;nan
79048;BME280;68680;50.764;6.120;2024-03-23T02:21:10;96281.31;;;-12.93;nan
79048;BME280;68680;50.764;6.120;2024-03-23T02:23:37;96275.59;;;-12.78;nan
79048;BME280;68680;50.764;6.120;2024-03-23T02:26:03;96273.31;;;-12.90;nan
79048;BME280;68680;50.764;6.120;2024-03-23T02:28:29;96287.78;;;-12.72;nan
79048;BME280;68680;50.764;6.120;2024-03-23T02:30:55;96286.69;;;-12.70;nan
79048;BME280;68680;50.764;6.120;2024-03-23T02:33:20;96279.44;;;-12.74;nan
79048;BME280;68680;50.764;6.120;2024-03-23T02:35:47;96277.78;;;-12.92;nan
79048;BME280;68680;50.764;6.120;2024-03-23T02:38:13;96269.28;;;-13.00;nan
79048;BME280;68680;50.764;6.120;2024-03-23T02:40:40;96259.41;;;-12.87;nan
79048;BME280;68680;50.764;6.120;2024-03-23T02:43:06;96251.19;;;-12.91;nan
79048;BME280;68680;50.764;6.120;2024-03-23T02:45:32;96244.75;;;-13.03;nan
79048;BME280;68680;50.764;6.120;2024-03-23T02:47:57;96227.13;;;-13.14;nan
79048;BME280;68680;50.764;6.120;2024-03-23T02:50:23;96225.22;;;-12.96;nan
79048;BME280;68680;50.764;6.120;2024-03-23T02:52:49;96235.97;;;-12.84;nan
79048;BME280;68680;50.764;6.120;2024-03-23T02:55:15;96238.88;;;-12.87;nan
79048;BME280;68680;50.764;6.120;2024-03-23T02:57:42;96249.59;;;-13.00;nan
79048;BME280;68680;50.764;6.120;2024-03-23T03:00:09;96256.66;;;-12.85;nan
79048;BME280;68680;50.764;6.120;2024-03-23T03:02:36;96247.53;;;-12.72;nan
79048;BME280;68680;50.764;6.120;2024-03-23T03:05:02;96239.06;;;-12.64;nan
79048;BME280;68680;50.764;6.120;2024-03-23T03:07:27;96232.31;;;-12.49;nan
79048;BME280;68680;50.764;6.120;2024-03-23T03:09:53;96226.88;;;-12.38;nan
79048;BME280;68680;50.764;6.120;2024-03-23T03:12:19;96237.59;;;-12.51;nan
79048;BME280;68680;50.764;6.120;2024-03-23T03:14:46;96238.09;;;-12.55;nan
79048;BME280;68680;50.764;6.120;2024-03-23T03:17:12;96234.22;;;-12.51;nan
79048;BME280;68680;50.764;6.120;2024-03-23T03:19:37;96243.88;;;-12.45;nan
79048;BME280;68680;50.764;6.120;2024-03-23T03:22:03;96229.91;;;-12.42;nan
79048;BME280;68680;50.764;6.120;2024-03-23T03:24:29;96242.25;;;-12.38;nan
79048;BME280;68680;50.764;6.120;2024-03-23T03:26:55;96237.47;;;-12.49;nan
79048;BME280;68680;50.764;6.120;2024-03-23T03:29:21;96249.00;;;-12.61;nan
79048;BME280;68680;50.764;6.120;2024-03-23T03:31:48;96249.63;;;-12.67;nan
79048;BME280;68680;50.764;6.120;2024-03-23T03:34:14;96261.16;;;-12.63;nan
79048;BME280;68680;50.764;6.120;2024-03-23T03:36:39;96270.16;;;-12.51;nan
79048;BME280;68680;50.764;6.120;2024-03-23T03:39:05;96276.09;;;-12.67;nan
79048;BME280;68680;50.764;6.120;2024-03-23T03:41:32;96263.41;;;-12.68;nan
79048;BME280;68680;50.764;6.120;2024-03-23T03:43:58;96270.16;;;-12.67;nan
79048;BME280;68680;50.764;6.120;2024-03-23T03:46:23;96271.44;;;-12.63;nan
79048;BME280;68680;50.764;6.120;2024-03-23T03:48:50;96267.25;;;-12.72;nan
79048;BME280;68680;50.764;6.120;2024-03-23T03:51:16;96257.63;;;-12.78;nan
79048;BME280;68680;50.764;6.120;2024-03-23T03:53:42;96244.31;;;-12.74;nan
79048;BME280;68680;50.764;6.120;2024-03-23T03:56:08;96241.94;;;-12.75;nan
79048;BME280;68680;50.764;6.120;2024-03-23T03:58:33;96247.72;;;-12.65;nan
79048;BME280;68680;50.764;6.120;2024-03-23T04:00:59;96254.75;;;-12.67;nan
79048;BME280;68680;50.764;6.120;2024-03-23T04:03:25;96257.63;;;-12.78;nan
79048;BME280;68680;50.764;6.120;2024-03-23T04:05:54;96260.84;;;-12.76;nan
79048;BME280;68680;50.764;6.120;2024-03-23T04:08:20;96253.78;;;-12.74;nan
79048;BME280;68680;50.764;6.120;2024-03-23T04:10:46;96253.75;;;-12.91;nan
79048;BME280;68680;50.764;6.120;2024-03-23T04:13:12;96260.50;;;-12.90;nan
79048;BME280;68680;50.764;6.120;2024-03-23T04:15:38;96269.81;;;-12.88;nan
79048;BME280;68680;50.764;6.120;2024-03-23T04:18:04;96265.94;;;-12.93;nan
79048;BME280;68680;50.764;6.120;2024-03-23T04:20:30;96264.34;;;-12.94;nan
79048;BME280;68680;50.764;6.120;2024-03-23T04:22:57;96263.69;;;-12.96;nan
79048;BME280;68680;50.764;6.120;2024-03-23T04:25:23;96264.34;;;-12.94;nan
79048;BME280;68680;50.764;6.120;2024-03-23T04:27:48;96261.31;;;-12.89;nan
79048;BME280;68680;50.764;6.120;2024-03-23T04:30:14;96258.22;;;-13.01;nan
79048;BME280;68680;50.764;6.120;2024-03-23T04:32:40;96256.84;;;-12.87;nan
79048;BME280;68680;50.764;6.120;2024-03-23T04:35:06;96245.13;;;-12.90;nan
79048;BME280;68680;50.764;6.120;2024-03-23T04:37:32;96251.19;;;-12.91;nan
79048;BME280;68680;50.764;6.120;2024-03-23T04:40:00;96252.47;;;-12.95;nan
79048;BME280;68680;50.764;6.120;2024-03-23T04:42:26;96247.34;;;-12.86;nan
79048;BME280;68680;50.764;6.120;2024-03-23T04:44:51;96252.47;;;-12.86;nan
79048;BME280;68680;50.764;6.120;2024-03-23T04:47:17;96255.66;;;-12.93;nan
79048;BME280;68680;50.764;6.120;2024-03-23T04:49:43;96251.84;;;-12.88;nan
79048;BME280;68680;50.764;6.120;2024-03-23T04:52:09;96250.88;;;-12.96;nan
79048;BME280;68680;50.764;6.120;2024-03-23T04:54:34;96258.88;;;-12.91;nan
79048;BME280;68680;50.764;6.120;2024-03-23T04:57:01;96269.50;;;-12.77;nan
79048;BME280;68680;50.764;6.120;2024-03-23T04:59:27;96260.50;;;-12.90;nan
79048;BME280;68680;50.764;6.120;2024-03-23T05:01:53;96260.03;;;-12.93;nan
79048;BME280;68680;50.764;6.120;2024-03-23T05:04:19;96267.25;;;-12.88;nan
79048;BME280;68680;50.764;6.120;2024-03-23T05:06:44;96264.03;;;-12.91;nan
79048;BME280;68680;50.764;6.120;2024-03-23T05:09:10;96264.34;;;-12.94;nan
79048;BME280;68680;50.764;6.120;2024-03-23T05:11:36;96257.63;;;-12.78;nan
79048;BME280;68680;50.764;6.120;2024-03-23T05:14:03;96262.72;;;-13.03;nan
79048;BME280;68680;50.764;6.120;2024-03-23T05:16:29;96263.38;;;-13.01;nan
79048;BME280;68680;50.764;6.120;2024-03-23T05:18:55;96254.38;;;-12.97;nan
79048;BME280;68680;50.764;6.120;2024-03-23T05:21:21;96254.72;;;-13.00;nan
79048;BME280;68680;50.764;6.120;2024-03-23T05:23:46;96260.13;;;-13.03;nan
79048;BME280;68680;50.764;6.120;2024-03-23T05:26:12;96259.16;;;-13.10;nan
79048;BME280;68680;50.764;6.120;2024-03-23T05:28:38;96261.72;;;-13.10;nan
79048;BME280;68680;50.764;6.120;2024-03-23T05:31:05;96275.19;;;-13.16;nan
79048;BME280;68680;50.764;6.120;2024-03-23T05:33:31;96274.91;;;-12.97;nan
79048;BME280;68680;50.764;6.120;2024-03-23T05:35:58;96278.09;;;-13.03;nan
79048;BME280;68680;50.764;6.120;2024-03-23T05:38:24;96271.97;;;-13.10;nan
79048;BME280;68680;50.764;6.120;2024-03-23T05:40:54;96277.28;;;-13.11;nan
79048;BME280;68680;50.764;6.120;2024-03-23T05:43:20;96282.72;;;-13.14;nan
79048;BME280;68680;50.764;6.120;2024-03-23T05:45:45;96277.47;;;-13.05;nan
79048;BME280;68680;50.764;6.120;2024-03-23T05:48:13;96270.06;;;-13.16;nan
79048;BME280;68680;50.764;6.120;2024-03-23T05:50:38;96269.41;;;-13.10;nan
79048;BME280;68680;50.764;6.120;2024-03-23T05:53:04;96268.16;;;-13.14;nan
79048;BME280;68680;50.764;6.120;2024-03-23T05:55:30;96268.47;;;-13.17;nan
79048;BME280;68680;50.764;6.120;2024-03-23T05:57:56;96268.16;;;-13.14;nan
79048;BME280;68680;50.764;6.120;2024-03-23T06:00:21;96262.22;;;-13.14;nan
79048;BME280;68680;50.764;6.120;2024-03-23T06:02:47;96263.03;;;-13.06;nan
79048;BME280;68680;50.764;6.120;2024-03-23T06:05:14;96267.84;;;-13.03;nan
79048;BME280;68680;50.764;6.120;2024-03-23T06:07:40;96271.06;;;-13.01;nan
79048;BME280;68680;50.764;6.120;2024-03-23T06:10:07;96278.13;;;-12.95;nan
79048;BME280;68680;50.764;6.120;2024-03-23T06:12:33;96268.53;;;-12.84;nan
79048;BME280;68680;50.764;6.120;2024-03-23T06:14:59;96275.25;;;-12.83;nan
79048;BME280;68680;50.764;6.120;2024-03-23T06:17:25;96277.50;;;-12.80;nan
79048;BME280;68680;50.764;6.120;2024-03-23T06:19:51;96279.44;;;-12.74;nan
79048;BME280;68680;50.764;6.120;2024-03-23T06:22:18;96272.06;;;-12.69;nan
79048;BME280;68680;50.764;6.120;2024-03-23T06:24:44;96281.56;;;-12.54;nan
79048;BME280;68680;50.764;6.120;2024-03-23T06:27:10;96280.13;;;-12.48;nan
79048;BME280;68680;50.764;6.120;2024-03-23T06:29:36;96289.41;;;-12.55;nan
79048;BME280;68680;50.764;6.120;2024-03-23T06:32:02;96286.72;;;-12.37;nan
79048;BME280;68680;50.764;6.120;2024-03-23T06:34:27;96292.00;;;-12.31;nan
79048;BME280;68680;50.764;6.120;2024-03-23T06:36:53;96294.41;;;-12.37;nan
79048;BME280;68680;50.764;6.120;2024-03-23T06:39:20;96297.78;;;-12.37;nan
79048;BME280;68680;50.764;6.120;2024-03-23T06:41:53;96292.97;;;-12.24;nan
79048;BME280;68680;50.764;6.120;2024-03-23T06:44:19;96297.13;;;-12.15;nan
79048;BME280;68680;50.764;6.120;2024-03-23T06:46:45;96301.31;;;-12.22;nan
79048;BME280;68680;50.764;6.120;2024-03-23T06:49:11;96288.47;;;-12.14;nan
79048;BME280;68680;50.764;6.120;2024-03-23T06:51:37;96290.09;;;-12.13;nan
79048;BME280;68680;50.764;6.120;2024-03-23T06:54:04;96298.75;;;-12.14;nan
79048;BME280;68680;50.764;6.120;2024-03-23T06:56:31;96302.63;;;-12.18;nan
79048;BME280;68680;50.764;6.120;2024-03-23T06:58:57;96294.41;;;-12.13;nan
79048;BME280;68680;50.764;6.120;2024-03-23T07:01:23;96294.25;;;-12.03;nan
79048;BME280;68680;50.764;6.120;2024-03-23T07:03:49;96307.09;;;-11.95;nan
79048;BME280;68680;50.764;6.120;2024-03-23T07:06:15;96311.56;;;-11.73;nan
79048;BME280;68680;50.764;6.120;2024-03-23T07:08:41;96317.94;;;-11.69;nan
79048;BME280;68680;50.764;6.120;2024-03-23T07:11:06;96304.44;;;-11.55;nan
79048;BME280;68680;50.764;6.120;2024-03-23T07:13:34;96317.25;;;-11.47;nan
79048;BME280;68680;50.764;6.120;2024-03-23T07:15:59;96321.47;;;-11.54;nan
79048;BME280;68680;50.764;6.120;2024-03-23T07:18:25;96308.63;;;-11.62;nan
79048;BME280;68680;50.764;6.120;2024-03-23T07:20:54;96311.03;;;-11.60;nan
79048;BME280;68680;50.764;6.120;2024-03-23T07:23:20;96313.75;;;-11.70;nan
79048;BME280;68680;50.764;6.120;2024-03-23T07:25:56;96301.59;;;-11.76;nan
79048;BME280;68680;50.764;6.120;2024-03-23T07:28:22;96303.81;;;-11.65;nan
79048;BME280;68680;50.764;6.120;2024-03-23T07:31:02;96308.31;;;-11.59;nan
79048;BME280;68680;50.764;6.120;2024-03-23T07:33:28;96304.44;;;-11.55;nan
79048;BME280;68680;50.764;6.120;2024-03-23T07:35:54;96300.91;;;-11.70;nan
79048;BME280;68680;50.764;6.120;2024-03-23T07:38:20;96301.06;;;-11.64;nan
79048;BME280;68680;50.764;6.120;2024-03-23T07:40:46;96303.53;;;-11.78;nan
79048;BME280;68680;50.764;6.120;2024-03-23T07:43:11;96301.56;;;-11.60;nan
79048;BME280;68680;50.764;6.120;2024-03-23T07:45:37;96300.91;;;-11.54;nan
79048;BME280;68680;50.764;6.120;2024-03-23T07:48:05;96300.25;;;-11.56;nan
79048;BME280;68680;50.764;6.120;2024-03-23T07:50:31;96302.78;;;-11.40;nan
79048;BME280;68680;50.764;6.120;2024-03-23T07:52:57;96304.72;;;-11.42;nan
79048;BME280;68680;50.764;6.120;2024-03-23T07:55:22;96304.69;;;-11.34;nan
79048;BME280;68680;50.764;6.120;2024-03-23T07:57:50;96299.84;;;-11.29;nan
79048;BME280;68680;50.764;6.120;2024-03-23T08:00:17;96305.94;;;-11.30;nan
79048;BME280;68680;50.764;6.120;2024-03-23T08:02:43;96314.97;;;-11.26;nan
79048;BME280;68680;50.764;6.120;2024-03-23T08:05:10;96317.47;;;-11.17;nan
79048;BME280;68680;50.764;6.120;2024-03-23T08:07:36;96308.94;;;-11.02;nan
79048;BME280;68680;50.764;6.120;2024-03-23T08:10:01;96315.13;;;-10.88;nan
79048;BME280;68680;50.764;6.120;2024-03-23T08:12:27;96316.44;;;-10.92;nan
79048;BME280;68680;50.764;6.120;2024-03-23T08:14:53;96328.25;;;-10.75;nan
79048;BME280;68680;50.764;6.120;2024-03-23T08:17:19;96335.09;;;-10.90;nan
79048;BME280;68680;50.764;6.120;2024-03-23T08:19:44;96319.59;;;-10.82;nan
79048;BME280;68680;50.764;6.120;2024-03-23T08:22:12;96323.72;;;-11.04;nan
79048;BME280;68680;50.764;6.120;2024-03-23T08:24:37;96338.03;;;-11.01;nan
79048;BME280;68680;50.764;6.120;2024-03-23T08:27:03;96328.34;;;-10.91;nan
79048;BME280;68680;50.764;6.120;2024-03-23T08:29:29;96323.09;;;-10.75;nan
79048;BME280;68680;50.764;6.120;2024-03-23T08:31:55;96332.59;;;-10.75;nan
79048;BME280;68680;50.764;6.120;2024-03-23T08:34:21;96326.41;;;-10.89;nan
79048;BME280;68680;50.764;6.120;2024-03-23T08:36:47;96322.03;;;-10.89;nan
79048;BME280;68680;50.764;6.120;2024-03-23T08:39:14;96325.66;;;-10.67;nan
79048;BME280;68680;50.764;6.120;2024-03-23T08:41:40;96328.59;;;-10.78;nan
79048;BME280;68680;50.764;6.120;2024-03-23T08:44:06;96330.53;;;-10.80;nan
79048;BME280;68680;50.764;6.120;2024-03-23T08:46:32;96327.59;;;-10.69;nan
79048;BME280;68680;50.764;6.120;2024-03-23T08:48:57;96325.81;;;-10.68;nan
79048;BME280;68680;50.764;6.120;2024-03-23T08:51:23;96326.25;;;-10.65;nan
79048;BME280;68680;50.764;6.120;2024-03-23T08:53:49;96326.56;;;-10.60;nan
79048;BME280;68680;50.764;6.120;2024-03-23T08:56:16;96324.19;;;-10.38;nan
79048;BME280;68680;50.764;6.120;2024-03-23T08:58:42;96328.09;;;-10.43;nan
79048;BME280;68680;50.764;6.120;2024-03-23T09:01:10;96317.53;;;-10.56;nan
79048;BME280;68680;50.764;6.120;2024-03-23T09:03:36;96324.38;;;-10.71;nan
79048;BME280;68680;50.764;6.120;2024-03-23T09:06:06;96322.16;;;-10.82;nan
79048;BME280;68680;50.764;6.120;2024-03-23T09:08:32;96317.03;;;-10.82;nan
79048;BME280;68680;50.764;6.120;2024-03-23T09:11:04;96315.38;;;-10.75;nan
79048;BME280;68680;50.764;6.120;2024-03-23T09:13:31;96310.91;;;-10.81;nan
79048;BME280;68680;50.764;6.120;2024-03-23T09:15:57;96324.53;;;-11.03;nan
79048;BME280;68680;50.764;6.120;2024-03-23T09:18:22;96324.84;;;-11.06;nan
79048;BME280;68680;50.764;6.120;2024-03-23T09:20:48;96318.03;;;-11.30;nan
79048;BME280;68680;50.764;6.120;2024-03-23T09:23:14;96359.53;;;-11.49;nan
79048;BME280;68680;50.764;6.120;2024-03-23T09:25:40;96336.63;;;-11.83;nan
79048;BME280;68680;50.764;6.120;2024-03-23T09:28:07;96344.66;;;-11.94;nan
79048;BME280;68680;50.764;6.120;2024-03-23T09:30:34;96341.13;;;-12.10;nan
79048;BME280;68680;50.764;6.120;2024-03-23T09:33:00;96340.78;;;-12.23;nan
79048;BME280;68680;50.764;6.120;2024-03-23T09:35:26;96345.25;;;-12.33;nan
79048;BME280;68680;50.764;6.120;2024-03-23T09:37:52;96338.22;;;-12.31;nan
79048;BME280;68680;50.764;6.120;2024-03-23T09:40:19;96342.06;;;-12.43;nan
79048;BME280;68680;50.764;6.120;2024-03-23T09:42:50;96332.44;;;-12.41;nan
79048;BME280;68680;50.764;6.120;2024-03-23T09:45:21;96338.88;;;-12.04;nan
79048;BME280;68680;50.764;6.120;2024-03-23T09:47:48;96322.81;;;-12.31;nan
79048;BME280;68680;50.764;6.120;2024-03-23T09:50:15;96331.66;;;-12.17;nan
79048;BME280;68680;50.764;6.120;2024-03-23T09:52:41;96332.13;;;-12.14;nan
79048;BME280;68680;50.764;6.120;2024-03-23T09:55:08;96320.41;;;-12.08;nan
79048;BME280;68680;50.764;6.120;2024-03-23T09:57:34;96321.19;;;-11.99;nan
79048;BME280;68680;50.764;6.120;2024-03-23T10:00:00;96309.00;;;-11.89;nan
79048;BME280;68680;50.764;6.120;2024-03-23T10:02:26;96311.84;;;-11.60;nan
79048;BME280;68680;50.764;6.120;2024-03-23T10:04:53;96314.06;;;-11.49;nan
79048;BME280;68680;50.764;6.120;2024-03-23T10:07:20;96315.91;;;-11.27;nan
79048;BME280;68680;50.764;6.120;2024-03-23T10:09:46;96309.81;;;-11.26;nan
79048;BME280;68680;50.764;6.120;2024-03-23T10:12:14;96310.19;;;-10.98;nan
79048;BME280;68680;50.764;6.120;2024-03-23T10:14:40;96320.25;;;-10.80;nan
79048;BME280;68680;50.764;6.120;2024-03-23T10:17:17;96313.16;;;-10.78;nan
79048;BME280;68680;50.764;6.120;2024-03-23T10:19:43;96311.47;;;-10.63;nan
79048;BME280;68680;50.764;6.120;2024-03-23T10:22:19;96303.53;;;-10.84;nan
79048;BME280;68680;50.764;6.120;2024-03-23T10:24:45;96318.03;;;-10.91;nan
79048;BME280;68680;50.764;6.120;2024-03-23T10:27:16;96323.72;;;-11.04;nan
79048;BME280;68680;50.764;6.120;2024-03-23T10:29:42;96317.03;;;-10.82;nan
79048;BME280;68680;50.764;6.120;2024-03-23T10:32:09;96317.63;;;-10.72;nan
79048;BME280;68680;50.764;6.120;2024-03-23T10:34:36;96322.59;;;-10.40;nan
79048;BME280;68680;50.764;6.120;2024-03-23T10:37:03;96310.88;;;-10.19;nan
79048;BME280;68680;50.764;6.120;2024-03-23T10:39:33;96301.69;;;-10.22;nan
79048;BME280;68680;50.764;6.120;2024-03-23T10:42:02;96302.06;;;-10.10;nan
79048;BME280;68680;50.764;6.120;2024-03-23T10:44:29;96301.59;;;-9.91;nan
79048;BME280;68680;50.764;6.120;2024-03-23T10:46:55;96313.84;;;-9.93;nan
79048;BME280;68680;50.764;6.120;2024-03-23T10:49:21;96286.59;;;-10.10;nan
79048;BME280;68680;50.764;6.120;2024-03-23T10:51:47;96318.38;;;-10.32;nan
79048;BME280;68680;50.764;6.120;2024-03-23T10:54:13;96292.94;;;-10.35;nan
79048;BME280;68680;50.764;6.120;2024-03-23T10:56:41;96283.91;;;-10.31;nan
79048;BME280;68680;50.764;6.120;2024-03-23T10:59:08;96299.00;;;-10.28;nan
79048;BME280;68680;50.764;6.120;2024-03-23T11:01:34;96297.28;;;-10.13;nan
79048;BME280;68680;50.764;6.120;2024-03-23T11:04:00;96296.03;;;-9.80;nan
79048;BME280;68680;50.764;6.120;2024-03-23T11:06:36;96290.59;;;-9.85;nan
79048;BME280;68680;50.764;6.120;2024-03-23T11:09:03;96291.69;;;-9.65;nan
79048;BME280;68680;50.764;6.120;2024-03-23T11:11:29;96292.59;;;-9.58;nan
79048;BME280;68680;50.764;6.120;2024-03-23T11:13:57;96290.22;;;-9.82;nan
79048;BME280;68680;50.764;6.120;2024-03-23T11:16:24;96296.47;;;-10.14;nan
79048;BME280;68680;50.764;6.120;2024-03-23T11:18:52;96294.53;;;-10.34;nan
79048;BME280;68680;50.764;6.120;2024-03-23T11:21:52;96298.81;;;-10.04;nan
79048;BME280;68680;50.764;6.120;2024-03-23T11:24:19;96294.00;;;-9.70;nan
79048;BME280;68680;50.764;6.120;2024-03-23T11:26:45;96284.31;;;-9.53;nan
79048;BME280;68680;50.764;6.120;2024-03-23T11:29:14;96290.28;;;-9.23;nan
79048;BME280;68680;50.764;6.120;2024-03-23T11:31:46;96321.97;;;-9.29;nan
79048;BME280;68680;50.764;6.120;2024-03-23T11:34:12;96293.72;;;-9.75;nan
79048;BME280;68680;50.764;6.120;2024-03-23T11:36:38;96289.56;;;-9.99;nan
79048;BME280;68680;50.764;6.120;2024-03-23T11:39:12;96294.47;;;-9.89;nan
79048;BME280;68680;50.764;6.120;2024-03-23T11:41:46;96309.81;;;-9.73;nan
79048;BME280;68680;50.764;6.120;2024-03-23T11:44:17;96289.00;;;-9.86;nan
79048;BME280;68680;50.764;6.120;2024-03-23T11:46:43;96298.38;;;-9.93;nan
79048;BME280;68680;50.764;6.120;2024-03-23T11:49:21;96297.63;;;-9.64;nan
79048;BME280;68680;50.764;6.120;2024-03-23T11:51:47;96284.03;;;-9.14;nan
79048;BME280;68680;50.764;6.120;2024-03-23T11:54:12;96277.63;;;-8.89;nan
79048;BME280;68680;50.764;6.120;2024-03-23T11:56:38;96275.72;;;-8.44;nan
79048;BME280;68680;50.764;6.120;2024-03-23T11:59:04;96275.81;;;-8.74;nan
79048;BME280;68680;50.764;6.120;2024-03-23T12:01:31;96284.91;;;-8.78;nan
79048;BME280;68680;50.764;6.120;2024-03-23T12:03:57;96274.94;;;-8.81;nan
79048;BME280;68680;50.764;6.120;2024-03-23T12:06:23;96279.94;;;-8.94;nan
79048;BME280;68680;50.764;6.120;2024-03-23T12:08:49;96284.03;;;-9.14;nan
79048;BME280;68680;50.764;6.120;2024-03-23T12:11:16;96277.81;;;-9.78;nan
79048;BME280;68680;50.764;6.120;2024-03-23T12:13:44;96269.25;;;-10.54;nan
79048;BME280;68680;50.764;6.120;2024-03-23T12:16:12;96256.06;;;-10.36;nan
79048;BME280;68680;50.764;6.120;2024-03-23T12:18:41;96259.72;;;-10.30;nan
79048;BME280;68680;50.764;6.120;2024-03-23T12:21:08;96261.94;;;-10.19;nan
79048;BME280;68680;50.764;6.120;2024-03-23T12:23:34;96258.28;;;-10.10;nan
79048;BME280;68680;50.764;6.120;2024-03-23T12:26:00;96247.28;;;-9.89;nan
79048;BME280;68680;50.764;6.120;2024-03-23T12:28:27;96256.47;;;-9.58;nan
79048;BME280;68680;50.764;6.120;2024-03-23T12:30:53;96236.81;;;-9.15;nan
79048;BME280;68680;50.764;6.120;2024-03-23T12:33:19;96234.84;;;-8.77;nan
79048;BME280;68680;50.764;6.120;2024-03-23T12:35:47;96238.56;;;-8.64;nan
79048;BME280;68680;50.764;6.120;2024-03-23T12:38:13;96232.78;;;-8.45;nan
79048;BME280;68680;50.764;6.120;2024-03-23T12:40:38;96245.97;;;-8.40;nan
79048;BME280;68680;50.764;6.120;2024-03-23T12:43:04;96244.16;;;-8.61;nan
79048;BME280;68680;50.764;6.120;2024-03-23T12:45:30;96241.47;;;-8.89;nan
79048;BME280;68680;50.764;6.120;2024-03-23T12:47:56;96240.75;;;-8.83;nan
79048;BME280;68680;50.764;6.120;2024-03-23T12:50:22;96238.69;;;-8.51;nan
79048;BME280;68680;50.764;6.120;2024-03-23T12:52:49;96239.53;;;-8.44;nan
79048;BME280;68680;50.764;6.120;2024-03-23T12:55:15;96227.97;;;-8.69;nan
79048;BME280;68680;50.764;6.120;2024-03-23T12:57:41;96224.28;;;-8.60;nan
79048;BME280;68680;50.764;6.120;2024-03-23T13:00:08;96221.34;;;-8.36;nan
79048;BME280;68680;50.764;6.120;2024-03-23T13:02:34;96216.84;;;-8.00;nan
79048;BME280;68680;50.764;6.120;2024-03-23T13:05:00;96213.63;;;-8.02;nan
79048;BME280;68680;50.764;6.120;2024-03-23T13:07:26;96216.19;;;-7.80;nan
79048;BME280;68680;50.764;6.120;2024-03-23T13:09:53;96217.88;;;-7.66;nan
79048;BME280;68680;50.764;6.120;2024-03-23T13:12:19;96201.69;;;-8.03;nan
79048;BME280;68680;50.764;6.120;2024-03-23T13:14:46;96223.13;;;-8.09;nan
79048;BME280;68680;50.764;6.120;2024-03-23T13:17:12;96217.13;;;-6.65;nan
79048;BME280;68680;50.764;6.120;2024-03-23T13:19:38;96226.69;;;-6.59;nan
79048;BME280;68680;50.764;6.120;2024-03-23T13:22:04;96244.13;;;-7.69;nan
79048;BME280;68680;50.764;6.120;2024-03-23T13:24:30;96231.53;;;-8.49;nan
79048;BME280;68680;50.764;6.120;2024-03-23T13:26:58;96223.22;;;-9.52;nan
79048;BME280;68680;50.764;6.120;2024-03-23T13:29:24;96216.97;;;-10.02;nan
79048;BME280;68680;50.764;6.120;2024-03-23T13:31:52;96232.72;;;-10.34;nan
79048;BME280;68680;50.764;6.120;2024-03-23T13:34:18;96238.53;;;-10.32;nan
79048;BME280;68680;50.764;6.120;2024-03-23T13:36:45;96245.09;;;-10.53;nan
79048;BME280;68680;50.764;6.120;2024-03-23T13:39:12;96229.34;;;-9.83;nan
79048;BME280;68680;50.764;6.120;2024-03-23T13:41:38;96219.28;;;-9.78;nan
79048;BME280;68680;50.764;6.120;2024-03-23T13:44:06;96214.09;;;-10.07;nan
79048;BME280;68680;50.764;6.120;2024-03-23T13:46:32;96206.66;;;-10.31;nan
79048;BME280;68680;50.764;6.120;2024-03-23T13:48:58;96211.56;;;-10.45;nan
79048;BME280;68680;50.764;6.120;2024-03-23T13:51:25;96213.50;;;-10.47;nan
79048;BME280;68680;50.764;6.120;2024-03-23T13:53:51;96220.16;;;-10.75;nan
79048;BME280;68680;50.764;6.120;2024-03-23T13:56:17;96220.59;;;-10.94;nan
79048;BME280;68680;50.764;6.120;2024-03-23T13:58:43;96220.50;;;-11.40;nan
79048;BME280;68680;50.764;6.120;2024-03-23T14:01:10;96240.84;;;-11.61;nan
79048;BME280;68680;50.764;6.120;2024-03-23T14:03:35;96223.78;;;-11.54;nan